METAR AND TAF INFORMATION
METAR FOR LGSA
ADDS - METARS form results

(2301 UTC 26 June 2019)
Data provider http://aviationweather.gov/metar/data/
 
METAR text: LGSA 262250Z 28005KT 9999 FEW018 24/21 Q1013
Conditions at: LGSA (SOUDA/KHANIA (AF, GR) observed 2250 UTC 26 June 2019
Temperature: 24.0°C (75°F)
Dewpoint: 21.0°C (70°F) [RH = 83%]
Pressure (altimeter): 29.91 inches Hg (1013.0 mb)
Winds: from the W (280 degrees) at 6 MPH (5 knots; 2.6 m/s)
Visibility: 6 or more miles (10+ km)
Ceiling: at least 12,000 feet AGL
Clouds: few clouds at 1800 feet AGL
Weather: no significant weather observed at this time

METAR text: LGSA 262220Z 30004KT 9999 FEW018 24/21 Q1013
Conditions at: LGSA (SOUDA/KHANIA (AF, GR) observed 2220 UTC 26 June 2019
Temperature: 24.0°C (75°F)
Dewpoint: 21.0°C (70°F) [RH = 83%]
Pressure (altimeter): 29.91 inches Hg (1013.0 mb)
Winds: from the WNW (300 degrees) at 5 MPH (4 knots; 2.1 m/s)
Visibility: 6 or more miles (10+ km)
Ceiling: at least 12,000 feet AGL
Clouds: few clouds at 1800 feet AGL
Weather: no significant weather observed at this time

Forecast for: LGSA (SOUDA/KHANIA (AF, GR)
Text: TAF LGSA 261700Z 2618/2718 29010KT 9999 FEW018 SCT025
Forecast period: 1800 UTC 26 June 2019 to 1800 UTC 27 June 2019
Forecast type: FROM: standard forecast or significant change
Winds: from the WNW (290 degrees) at 12 MPH (10 knots; 5.1 m/s)
Visibility: 6 or more miles 10+ km)
Ceiling: at least 12,000 feet AGL
Clouds: few clouds at 1800 feet AGL
scattered clouds at 2500 feet AGL
Weather: no significant weather forecast for this period
Text: PROB30
Forecast period: 0000 to 1200 UTC 27 June 2019
Forecast type: TEMPORARY: The following changes expected for less than half the time period
Visibility: 3 miles (5 km)
Ceiling: 2500 feet AGL
Clouds: scattered clouds at 1800 feet AGL
broken clouds at 2500 feet AGL
Weather: RA  (moderate rain)

 ΧΑΡΤΗΣ ΑΕΡΟΔΡΟΜΙΟΥ

 RUNWAY INFORMATION
Διάδρομος 11 Runway length 10982 ft Runway width 148 ft
Runway elevation 428 ft Runway displaced threshold 0 ft Runway heading 111
Διάδρομος 29 Runway length 10982 ft Runway width 148 ft
Runway elevation 490 ft Runway displaced threshold 0 ft Runway heading 291

 ΣΥΧΝΟΤΗΤΕΣ ΑΕΡΟΔΡΟΜΙΟΥ
Τύπος A/G Όνομα CHANIA RDO Συχνότητα 563.7 MHZ
Τύπος APP Όνομα APP Συχνότητα 118.125 MHZ
Τύπος GND Όνομα GND Συχνότητα 121.7 MHZ
Τύπος MISC Όνομα RANGER BAS Συχνότητα 25.24 MHZ
Τύπος OPS Όνομα BASE OPS Συχνότητα 35.94 MHZ
Τύπος PMSV Όνομα PMSV METRO Συχνότητα 35.94 MHZ
Τύπος POST Όνομα BULL PEN Συχνότητα 27.895 MHZ
Τύπος TWR Όνομα TWR Συχνότητα 121.1 MHZ

 AIRPORT NEAR NAVIGATION AIDS
Τύπος TACAN Όνομα Souda Συχνότητα 111200 KHZ
Τύπος VOR-DME Όνομα Chania Συχνότητα 108600 KHZ
Τύπος NDB Όνομα Chania Συχνότητα 409 KHZ



Hellenic Air Force Virtual - All rights reserved 2019 - Powered by VAM